createdAt,value
2023-02-26T00:04:36.347Z,0.75
2023-02-26T00:14:36.452Z,0.80
2023-02-26T00:24:36.410Z,0.72
2023-02-26T00:34:36.474Z,0.60
2023-02-26T00:44:38.307Z,0.48
2023-02-26T00:54:38.479Z,0.34
2023-02-26T01:04:38.549Z,0.19
2023-02-26T01:14:38.487Z,0.07
2023-02-26T01:24:38.482Z,0.04
2023-02-26T01:34:38.557Z,0.21
2023-02-26T01:44:38.774Z,0.54
2023-02-26T01:54:38.596Z,0.84
2023-02-26T02:04:38.590Z,1.00
2023-02-26T02:14:38.593Z,1.02
2023-02-26T02:24:38.534Z,0.91
2023-02-26T02:34:39.079Z,0.73
2023-02-26T02:44:39.633Z,0.53
2023-02-26T02:54:39.748Z,0.38
2023-02-26T03:04:39.555Z,0.31
2023-02-26T03:14:39.946Z,0.23
2023-02-26T03:24:40.856Z,0.14
2023-02-26T03:34:40.806Z,0.14
2023-02-26T03:44:44.090Z,0.23
2023-02-26T03:55:03.326Z,0.30
2023-02-26T04:05:05.072Z,0.25
2023-02-26T04:15:06.546Z,0.11
2023-02-26T04:25:06.918Z,-0.05
2023-02-26T04:35:07.088Z,-0.18
2023-02-26T04:45:08.966Z,-0.30
2023-02-26T04:55:09.667Z,-0.37
2023-02-26T05:05:09.877Z,-0.38
2023-02-26T05:15:09.852Z,-0.33
2023-02-26T05:25:09.997Z,-0.28
2023-02-26T05:35:10.140Z,-0.26
2023-02-26T05:45:10.975Z,-0.23
2023-02-26T05:55:10.869Z,-0.23
2023-02-26T06:05:10.904Z,-0.27
2023-02-26T06:15:10.913Z,-0.32
2023-02-26T06:25:10.837Z,-0.35
2023-02-26T06:35:10.794Z,-0.37
2023-02-26T06:45:10.951Z,-0.34
2023-02-26T06:55:10.920Z,-0.26
2023-02-26T07:05:10.960Z,-0.14
2023-02-26T07:15:10.930Z,0.01
2023-02-26T07:25:10.815Z,0.20
2023-02-26T07:35:10.975Z,0.42
2023-02-26T07:45:10.918Z,0.60
2023-02-26T07:55:10.879Z,0.76
2023-02-26T08:05:10.860Z,0.93
2023-02-26T08:15:12.724Z,1.10
2023-02-26T08:25:12.932Z,1.48
2023-02-26T08:35:12.914Z,1.92
2023-02-26T08:45:12.967Z,2.10
2023-02-26T08:55:12.940Z,2.75
2023-02-26T09:05:13.358Z,4.25
2023-02-26T09:15:14.374Z,6.07
2023-02-26T09:25:14.870Z,7.50
2023-02-26T09:35:15.120Z,8.36
2023-02-26T09:45:15.050Z,8.42
2023-02-26T09:55:15.504Z,7.73
2023-02-26T10:05:16.317Z,7.07
2023-02-26T10:15:16.318Z,6.97
2023-02-26T10:25:16.166Z,7.42
2023-02-26T10:35:16.120Z,7.67
2023-02-26T10:45:16.135Z,7.50
2023-02-26T10:55:16.145Z,7.02
2023-02-26T11:05:16.119Z,6.65
2023-02-26T11:15:16.139Z,6.55
2023-02-26T11:25:16.269Z,6.34
2023-02-26T11:35:16.123Z,6.00
2023-02-26T11:45:16.268Z,5.64
2023-02-26T11:55:16.184Z,5.43
2023-02-26T12:05:16.142Z,5.45
2023-02-26T12:15:16.369Z,5.69
2023-02-26T12:25:16.194Z,5.90
2023-02-26T12:35:16.312Z,5.93
2023-02-26T12:45:16.595Z,5.84
2023-02-26T12:55:17.235Z,5.69
2023-02-26T13:05:17.816Z,5.52
2023-02-26T13:15:18.356Z,5.44
2023-02-26T13:25:18.399Z,5.49
2023-02-26T13:35:19.222Z,5.47
2023-02-26T13:45:19.464Z,5.37
2023-02-26T13:55:19.402Z,5.34
2023-02-26T14:05:19.301Z,5.35
2023-02-26T14:15:19.383Z,5.38
2023-02-26T14:25:19.331Z,5.42
2023-02-26T14:35:20.056Z,5.47
2023-02-26T14:45:20.394Z,5.49
2023-02-26T14:55:20.426Z,5.46
2023-02-26T15:05:22.024Z,5.40
2023-02-26T15:15:22.461Z,5.33
2023-02-26T15:25:22.473Z,5.27
2023-02-26T15:35:22.472Z,5.20
2023-02-26T15:45:22.608Z,5.15
2023-02-26T15:55:22.491Z,5.08
2023-02-26T16:05:22.429Z,5.00
2023-02-26T16:15:22.530Z,4.92
2023-02-26T16:25:24.981Z,4.80
2023-02-26T16:35:24.569Z,4.63
2023-02-26T16:45:24.486Z,4.44
2023-02-26T16:55:24.627Z,4.24
2023-02-26T17:05:24.796Z,4.03
2023-02-26T17:15:24.549Z,3.80
2023-02-26T17:25:25.072Z,3.58
2023-02-26T17:35:25.546Z,3.38
2023-02-26T17:45:25.530Z,3.17
2023-02-26T17:55:25.660Z,2.98
2023-02-26T18:05:27.169Z,2.78
2023-02-26T18:15:27.674Z,2.55
2023-02-26T18:25:27.653Z,2.33
2023-02-26T18:35:28.017Z,2.15
2023-02-26T18:45:27.638Z,2.02
2023-02-26T18:55:27.738Z,1.87
2023-02-26T19:05:27.668Z,1.74
2023-02-26T19:15:27.641Z,1.59
2023-02-26T19:25:29.565Z,1.45
2023-02-26T19:35:30.256Z,1.44
2023-02-26T19:45:31.308Z,1.45
2023-02-26T19:55:31.727Z,1.47
2023-02-26T20:05:31.703Z,1.58
2023-02-26T20:15:31.712Z,1.74
2023-02-26T20:25:31.860Z,1.90
2023-02-26T20:35:31.732Z,2.02
2023-02-26T20:45:31.837Z,2.03
2023-02-26T20:55:31.799Z,1.88
2023-02-26T21:05:32.284Z,1.59
2023-02-26T21:15:32.777Z,1.29
2023-02-26T21:25:32.873Z,1.00
2023-02-26T21:35:33.048Z,0.77
2023-02-26T21:45:34.906Z,0.66
2023-02-26T21:55:34.902Z,0.63
2023-02-26T22:05:34.919Z,0.54
2023-02-26T22:15:34.828Z,0.46
2023-02-26T22:25:34.858Z,0.44
2023-02-26T22:35:34.942Z,0.45
2023-02-26T22:45:34.960Z,0.49
2023-02-26T22:55:34.892Z,0.57
2023-02-26T23:05:35.018Z,0.58
2023-02-26T23:15:35.023Z,0.45
2023-02-26T23:25:34.893Z,0.23
2023-02-26T23:35:35.096Z,-0.02
2023-02-26T23:45:34.944Z,-0.23
2023-02-26T23:55:35.012Z,-0.41
